Detall de PIREP

Printer-friendly versionPDF version

[2015/12/31 12:59:00]
Flight IATA:CT1004
Pilot Number:016
Company ICAO:CAT
Aircraft Type:B738/F
PAX:139
Departing Airport: LEZL
Destination Airport: LEBL
Alternate Airport:LEPA
Online: VATSIM
Route:BUDIT UM445 BEGOX UN860 VLC UM985 SOPET UN608 MATEX
Flight Level:F360
No Slew and time accel
No pause
Crash detect
Detect pilot in Cockpit between each 30 and 45 minutes
12:59 Zero fuel Weight: 117826 Lbs, Fuel Weight: 17078 Lbs
12:59 VATSIM:LEZL 311930Z 19003KT 9999 BKN005 BKN040 16/15 Q1025 NOSIG
12:59 VATSIM:LEBL 311930Z 05008KT 9999 FEW035 14/11 Q1025 NOSIG
12:59 Parking Brakes off
13:05 Take-off
13:05 Take off Weight: 134216 Lbs
13:05 Wind: 195º @ 003 Knots Heading: 091º
13:05 POS N37º 25´ 04´´ W005º 53´ 39´´
13:05 Flaps:3 at 158 Knots
13:05 Gear Up: 161 Knots
13:06 Flaps:2 at 214 Knots
13:06 Flaps:1 at 227 Knots
13:06 Flaps:0 at 247 Knots
13:20 Wind:000º@006 Knots Heading: 085º Ground Speed: 448 Knots Altitude 35905 ft
13:20 TOC
13:20 Fuel Weight: 13054 Lb
13:35 Wind:237º@009 Knots Heading: 052º Ground Speed: 455 Knots Altitude 36364 ft
13:50 Wind:070º@017 Knots Heading: 043º Ground Speed: 431 Knots Altitude 36338 ft
13:52 TOD
13:52 Fuel Weight: 10151 Lb
14:05 Wind:066º@005 Knots Heading: 049º Ground Speed: 299 Knots Altitude 13661 ft
14:09 Flaps:1 at 240 Knots
14:12 Flaps:2 at 214 Knots
14:13 Flaps:3 at 209 Knots
14:13 Flaps:4 at 196 Knots
14:14 Flaps:5 at 176 Knots
14:14 Gear Down: 176 Knots
14:14 Flaps:6 at 164 Knots
14:14 Flaps:7 at 155 Knots
14:16 TouchDown:Rate -249 ft/min Speed: 128 Knots
14:16 VATSIM:LEBL 312100Z 03006KT 9999 FEW014 13/10 Q1025 NOSIG
14:17 Land
14:17 Wind:032º@007 Knots
14:17 Heading: 077º
14:17 Flight Duration: 01:12
14:17 Landing Weight: 126940 Lbs
14:17 POS N41º 17´ 56´´ E002º 05´04´´
14:19 Parking brakes on
14:19 Block to Block Duration: 01:20
14:19 Final Fuel: 8844 Lbls
14:19 Spent Fuel: 8234 Lbls
14:19 Flight Length: 449 NM
14:19 TOD Land Length: 118 NM

Exportar CSV

Powered by Drupal - Modified by Danger4k